sensor_id;sensor_type;location;lat;lon;timestamp;pressure;altitude;pressure_sealevel;temperature;humidity
69171;BME280;56279;47.902;12.308;2023-07-31T00:01:35;95580.34;;;17.83;76.96
69171;BME280;56279;47.902;12.308;2023-07-31T00:03:36;95577.19;;;17.81;77.25
69171;BME280;56279;47.902;12.308;2023-07-31T00:05:38;95585.06;;;17.77;77.34
69171;BME280;56279;47.902;12.308;2023-07-31T00:07:39;95580.06;;;17.76;77.06
69171;BME280;56279;47.902;12.308;2023-07-31T00:09:40;95586.81;;;17.73;77.26
69171;BME280;56279;47.902;12.308;2023-07-31T00:11:41;95592.91;;;17.74;77.30
69171;BME280;56279;47.902;12.308;2023-07-31T00:13:43;95594.16;;;17.76;77.06
69171;BME280;56279;47.902;12.308;2023-07-31T00:15:44;95597.47;;;17.73;77.40
69171;BME280;56279;47.902;12.308;2023-07-31T00:17:45;95594.03;;;17.73;77.37
69171;BME280;56279;47.902;12.308;2023-07-31T00:19:47;95593.22;;;17.72;77.35
69171;BME280;56279;47.902;12.308;2023-07-31T00:21:50;95590.56;;;17.72;77.49
69171;BME280;56279;47.902;12.308;2023-07-31T00:23:51;95587.56;;;17.74;77.54
69171;BME280;56279;47.902;12.308;2023-07-31T00:25:52;95584.59;;;17.75;77.51
69171;BME280;56279;47.902;12.308;2023-07-31T00:27:55;95581.59;;;17.77;77.62
69171;BME280;56279;47.902;12.308;2023-07-31T00:29:56;95576.59;;;17.75;78.14
69171;BME280;56279;47.902;12.308;2023-07-31T00:31:58;95581.47;;;17.73;78.54
69171;BME280;56279;47.902;12.308;2023-07-31T00:33:59;95577.22;;;17.72;79.28
69171;BME280;56279;47.902;12.308;2023-07-31T00:36:00;95582.09;;;17.70;79.85
69171;BME280;56279;47.902;12.308;2023-07-31T00:38:02;95572.03;;;17.67;79.93
69171;BME280;56279;47.902;12.308;2023-07-31T00:40:03;95567.31;;;17.64;80.45
69171;BME280;56279;47.902;12.308;2023-07-31T00:42:05;95576.75;;;17.62;80.19
69171;BME280;56279;47.902;12.308;2023-07-31T00:44:06;95567.97;;;17.61;80.11
69171;BME280;56279;47.902;12.308;2023-07-31T00:46:08;95572.50;;;17.61;80.81
69171;BME280;56279;47.902;12.308;2023-07-31T00:48:09;95570.16;;;17.59;81.25
69171;BME280;56279;47.902;12.308;2023-07-31T00:50:11;95565.13;;;17.58;81.78
69171;BME280;56279;47.902;12.308;2023-07-31T00:52:13;95561.19;;;17.55;81.69
69171;BME280;56279;47.902;12.308;2023-07-31T00:54:14;95570.94;;;17.51;82.20
69171;BME280;56279;47.902;12.308;2023-07-31T00:56:16;95564.63;;;17.47;82.39
69171;BME280;56279;47.902;12.308;2023-07-31T00:58:17;95569.50;;;17.45;82.42
69171;BME280;56279;47.902;12.308;2023-07-31T01:00:19;95562.91;;;17.43;82.58
69171;BME280;56279;47.902;12.308;2023-07-31T01:02:20;95560.84;;;17.40;82.73
69171;BME280;56279;47.902;12.308;2023-07-31T01:04:21;95562.25;;;17.37;83.21
69171;BME280;56279;47.902;12.308;2023-07-31T01:11:21;95551.28;;;17.21;83.85
69171;BME280;56279;47.902;12.308;2023-07-31T01:13:24;95554.72;;;17.13;83.89
69171;BME280;56279;47.902;12.308;2023-07-31T01:15:26;95553.63;;;17.06;83.86
69171;BME280;56279;47.902;12.308;2023-07-31T01:17:27;95546.84;;;17.00;84.18
69171;BME280;56279;47.902;12.308;2023-07-31T01:19:28;95544.31;;;16.95;83.91
69171;BME280;56279;47.902;12.308;2023-07-31T01:26:04;95536.63;;;16.85;84.22
69171;BME280;56279;47.902;12.308;2023-07-31T01:28:11;95530.19;;;16.86;84.03
69171;BME280;56279;47.902;12.308;2023-07-31T01:30:22;95530.19;;;16.86;84.13
69171;BME280;56279;47.902;12.308;2023-07-31T01:32:28;95532.84;;;16.86;84.01
69171;BME280;56279;47.902;12.308;2023-07-31T01:34:31;95525.97;;;16.85;84.14
69171;BME280;56279;47.902;12.308;2023-07-31T01:36:33;95525.19;;;16.84;84.06
69171;BME280;56279;47.902;12.308;2023-07-31T01:38:34;95519.66;;;16.81;84.09
69171;BME280;56279;47.902;12.308;2023-07-31T01:40:37;95519.81;;;16.76;84.39
69171;BME280;56279;47.902;12.308;2023-07-31T01:42:38;95511.50;;;16.69;84.66
69171;BME280;56279;47.902;12.308;2023-07-31T01:44:39;95518.84;;;16.63;84.80
69171;BME280;56279;47.902;12.308;2023-07-31T01:46:40;95506.00;;;16.56;84.95
69171;BME280;56279;47.902;12.308;2023-07-31T01:48:42;95510.34;;;16.52;85.13
69171;BME280;56279;47.902;12.308;2023-07-31T01:50:43;95510.97;;;16.49;85.23
69171;BME280;56279;47.902;12.308;2023-07-31T01:52:44;95504.38;;;16.47;85.24
69171;BME280;56279;47.902;12.308;2023-07-31T01:54:46;95500.91;;;16.46;85.27
69171;BME280;56279;47.902;12.308;2023-07-31T01:56:47;95504.38;;;16.47;85.25
69171;BME280;56279;47.902;12.308;2023-07-31T01:58:49;95502.50;;;16.47;84.99
69171;BME280;56279;47.902;12.308;2023-07-31T02:00:50;95501.38;;;16.48;84.87
69171;BME280;56279;47.902;12.308;2023-07-31T02:02:51;95502.50;;;16.47;84.56
69171;BME280;56279;47.902;12.308;2023-07-31T02:04:54;95502.78;;;16.46;84.75
69171;BME280;56279;47.902;12.308;2023-07-31T02:06:55;95500.44;;;16.44;84.72
69171;BME280;56279;47.902;12.308;2023-07-31T02:08:57;95496.19;;;16.43;84.92
69171;BME280;56279;47.902;12.308;2023-07-31T02:10:58;95499.97;;;16.42;85.02
69171;BME280;56279;47.902;12.308;2023-07-31T02:12:59;95501.03;;;16.41;85.14
69171;BME280;56279;47.902;12.308;2023-07-31T02:15:01;95500.25;;;16.41;84.92
69171;BME280;56279;47.902;12.308;2023-07-31T02:17:03;95501.38;;;16.40;84.91
69171;BME280;56279;47.902;12.308;2023-07-31T02:19:04;95503.22;;;16.39;85.05
69171;BME280;56279;47.902;12.308;2023-07-31T02:21:06;95495.25;;;16.39;85.12
69171;BME280;56279;47.902;12.308;2023-07-31T02:23:07;95491.78;;;16.39;84.98
69171;BME280;56279;47.902;12.308;2023-07-31T02:25:08;95494.44;;;16.39;85.18
69171;BME280;56279;47.902;12.308;2023-07-31T02:27:09;95490.38;;;16.41;85.39
69171;BME280;56279;47.902;12.308;2023-07-31T02:29:11;95493.38;;;16.40;85.59
69171;BME280;56279;47.902;12.308;2023-07-31T02:31:12;95496.31;;;16.38;85.61
69171;BME280;56279;47.902;12.308;2023-07-31T02:33:15;95497.44;;;16.37;85.74
69171;BME280;56279;47.902;12.308;2023-07-31T02:35:17;95498.03;;;16.34;85.85
69171;BME280;56279;47.902;12.308;2023-07-31T02:37:19;95498.34;;;16.33;85.75
69171;BME280;56279;47.902;12.308;2023-07-31T02:39:21;95500.22;;;16.32;85.87
69171;BME280;56279;47.902;12.308;2023-07-31T02:41:22;95494.13;;;16.32;86.05
69171;BME280;56279;47.902;12.308;2023-07-31T02:43:23;95487.53;;;16.29;86.04
69171;BME280;56279;47.902;12.308;2023-07-31T02:45:24;95488.16;;;16.26;86.33
69171;BME280;56279;47.902;12.308;2023-07-31T02:47:26;95492.50;;;16.22;86.42
69171;BME280;56279;47.902;12.308;2023-07-31T02:49:27;95492.03;;;16.20;86.67
69171;BME280;56279;47.902;12.308;2023-07-31T02:51:28;95483.09;;;16.16;86.79
69171;BME280;56279;47.902;12.308;2023-07-31T02:53:29;95488.22;;;16.13;86.87
69171;BME280;56279;47.902;12.308;2023-07-31T02:55:31;95491.06;;;16.08;86.97
69171;BME280;56279;47.902;12.308;2023-07-31T02:57:32;95485.22;;;16.06;87.12
69171;BME280;56279;47.902;12.308;2023-07-31T02:59:33;95485.88;;;16.03;86.89
69171;BME280;56279;47.902;12.308;2023-07-31T03:01:34;95470.19;;;16.01;87.13
69171;BME280;56279;47.902;12.308;2023-07-31T03:03:36;95473.47;;;15.98;87.21
69171;BME280;56279;47.902;12.308;2023-07-31T03:05:37;95474.06;;;15.95;87.26
69171;BME280;56279;47.902;12.308;2023-07-31T03:07:38;95473.13;;;15.91;86.86
69171;BME280;56279;47.902;12.308;2023-07-31T03:09:40;95467.63;;;15.87;86.95
69171;BME280;56279;47.902;12.308;2023-07-31T03:11:41;95470.59;;;15.86;86.83
69171;BME280;56279;47.902;12.308;2023-07-31T03:13:42;95464.31;;;15.82;86.64
69171;BME280;56279;47.902;12.308;2023-07-31T03:15:44;95468.66;;;15.78;86.43
69171;BME280;56279;47.902;12.308;2023-07-31T03:17:45;95465.03;;;15.74;86.18
69171;BME280;56279;47.902;12.308;2023-07-31T03:19:47;95470.22;;;15.70;86.35
69171;BME280;56279;47.902;12.308;2023-07-31T03:21:48;95462.03;;;15.67;86.42
69171;BME280;56279;47.902;12.308;2023-07-31T03:23:50;95468.75;;;15.64;86.28
69171;BME280;56279;47.902;12.308;2023-07-31T03:25:59;95459.34;;;15.58;86.46
69171;BME280;56279;47.902;12.308;2023-07-31T03:28:03;95457.59;;;15.54;86.26
69171;BME280;56279;47.902;12.308;2023-07-31T03:30:05;95461.91;;;15.50;86.20
69171;BME280;56279;47.902;12.308;2023-07-31T03:32:07;95463.13;;;15.44;86.07
69171;BME280;56279;47.902;12.308;2023-07-31T03:34:08;95463.72;;;15.41;86.23
69171;BME280;56279;47.902;12.308;2023-07-31T03:36:10;95466.50;;;15.36;86.22
69171;BME280;56279;47.902;12.308;2023-07-31T03:38:11;95468.19;;;15.32;86.15
69171;BME280;56279;47.902;12.308;2023-07-31T03:40:12;95464.25;;;15.29;86.03
69171;BME280;56279;47.902;12.308;2023-07-31T03:42:13;95466.44;;;15.27;86.23
69171;BME280;56279;47.902;12.308;2023-07-31T03:44:15;95462.50;;;15.24;85.83
69171;BME280;56279;47.902;12.308;2023-07-31T03:46:16;95462.03;;;15.22;85.65
69171;BME280;56279;47.902;12.308;2023-07-31T03:48:18;95459.69;;;15.21;85.87
69171;BME280;56279;47.902;12.308;2023-07-31T03:50:19;95465.28;;;15.19;85.52
69171;BME280;56279;47.902;12.308;2023-07-31T03:52:20;95477.03;;;15.18;85.28
69171;BME280;56279;47.902;12.308;2023-07-31T03:54:22;95475.63;;;15.21;85.23
69171;BME280;56279;47.902;12.308;2023-07-31T03:56:23;95475.00;;;15.24;84.78
69171;BME280;56279;47.902;12.308;2023-07-31T03:58:24;95474.25;;;15.23;84.79
69171;BME280;56279;47.902;12.308;2023-07-31T04:00:26;95472.06;;;15.26;84.58
69171;BME280;56279;47.902;12.308;2023-07-31T04:02:28;95470.50;;;15.24;84.68
69171;BME280;56279;47.902;12.308;2023-07-31T04:04:29;95468.94;;;15.23;84.42
69171;BME280;56279;47.902;12.308;2023-07-31T04:06:30;95475.31;;;15.22;84.37
69171;BME280;56279;47.902;12.308;2023-07-31T04:08:31;95481.13;;;15.24;84.27
69171;BME280;56279;47.902;12.308;2023-07-31T04:10:33;95472.56;;;15.28;83.82
69171;BME280;56279;47.902;12.308;2023-07-31T04:12:34;95465.53;;;15.32;83.82
69171;BME280;56279;47.902;12.308;2023-07-31T04:14:35;95471.81;;;15.36;83.26
69171;BME280;56279;47.902;12.308;2023-07-31T04:16:37;95461.38;;;15.39;83.09
69171;BME280;56279;47.902;12.308;2023-07-31T04:18:38;95464.72;;;15.45;82.95
69171;BME280;56279;47.902;12.308;2023-07-31T04:20:39;95460.06;;;15.50;82.79
69171;BME280;56279;47.902;12.308;2023-07-31T04:22:41;95458.53;;;15.58;82.77
69171;BME280;56279;47.902;12.308;2023-07-31T04:24:42;95464.69;;;15.67;82.43
69171;BME280;56279;47.902;12.308;2023-07-31T04:26:43;95456.47;;;15.77;82.18
69171;BME280;56279;47.902;12.308;2023-07-31T04:28:44;95462.28;;;15.87;81.81
69171;BME280;56279;47.902;12.308;2023-07-31T04:30:47;95460.78;;;15.95;81.76
69171;BME280;56279;47.902;12.308;2023-07-31T04:32:49;95462.19;;;16.01;81.54
69171;BME280;56279;47.902;12.308;2023-07-31T04:34:50;95454.88;;;16.07;81.28
69171;BME280;56279;47.902;12.308;2023-07-31T04:36:51;95462.72;;;16.12;81.42
69171;BME280;56279;47.902;12.308;2023-07-31T04:38:52;95454.41;;;16.13;81.01
69171;BME280;56279;47.902;12.308;2023-07-31T04:40:54;95455.69;;;16.16;80.40
69171;BME280;56279;47.902;12.308;2023-07-31T04:42:55;95455.38;;;16.17;80.33
69171;BME280;56279;47.902;12.308;2023-07-31T04:44:56;95454.59;;;16.17;80.49
69171;BME280;56279;47.902;12.308;2023-07-31T04:46:58;95456.94;;;16.18;80.55
69171;BME280;56279;47.902;12.308;2023-07-31T04:48:59;95459.28;;;16.20;80.44
69171;BME280;56279;47.902;12.308;2023-07-31T04:51:01;95455.69;;;16.24;80.29
69171;BME280;56279;47.902;12.308;2023-07-31T04:53:02;95449.16;;;16.30;80.16
69171;BME280;56279;47.902;12.308;2023-07-31T04:55:03;95446.81;;;16.37;80.22
69171;BME280;56279;47.902;12.308;2023-07-31T04:57:06;95447.31;;;16.48;80.00
69171;BME280;56279;47.902;12.308;2023-07-31T04:59:07;95454.09;;;16.54;79.84
69171;BME280;56279;47.902;12.308;2023-07-31T05:01:08;95454.72;;;16.59;79.76
69171;BME280;56279;47.902;12.308;2023-07-31T05:03:09;95458.97;;;16.69;79.73
69171;BME280;56279;47.902;12.308;2023-07-31T05:05:12;95446.63;;;16.82;79.45
69171;BME280;56279;47.902;12.308;2023-07-31T05:07:13;95454.78;;;16.94;79.08
69171;BME280;56279;47.902;12.308;2023-07-31T05:09:15;95450.22;;;17.03;79.11
69171;BME280;56279;47.902;12.308;2023-07-31T05:11:16;95448.19;;;17.08;79.08
69171;BME280;56279;47.902;12.308;2023-07-31T05:13:17;95443.34;;;17.10;79.13
69171;BME280;56279;47.902;12.308;2023-07-31T05:15:18;95453.34;;;17.13;79.15
69171;BME280;56279;47.902;12.308;2023-07-31T05:17:20;95445.50;;;17.08;79.66
69171;BME280;56279;47.902;12.308;2023-07-31T05:19:21;95443.50;;;17.05;79.90
69171;BME280;56279;47.902;12.308;2023-07-31T05:21:22;95445.69;;;17.03;80.36
69171;BME280;56279;47.902;12.308;2023-07-31T05:23:23;95446.94;;;17.06;79.95
69171;BME280;56279;47.902;12.308;2023-07-31T05:25:25;95442.09;;;17.08;80.21
69171;BME280;56279;47.902;12.308;2023-07-31T05:27:26;95448.19;;;17.08;80.35
69171;BME280;56279;47.902;12.308;2023-07-31T05:29:27;95441.44;;;17.11;80.40
69171;BME280;56279;47.902;12.308;2023-07-31T05:31:28;95443.47;;;17.14;80.56
69171;BME280;56279;47.902;12.308;2023-07-31T05:33:30;95444.72;;;17.16;80.63
69171;BME280;56279;47.902;12.308;2023-07-31T05:35:31;95437.38;;;17.22;80.36
69171;BME280;56279;47.902;12.308;2023-07-31T05:37:34;95439.38;;;17.25;79.85
69171;BME280;56279;47.902;12.308;2023-07-31T05:39:35;95437.69;;;17.29;79.32
69171;BME280;56279;47.902;12.308;2023-07-31T05:41:37;95438.59;;;17.33;79.47
69171;BME280;56279;47.902;12.308;2023-07-31T05:43:38;95446.44;;;17.38;78.80
69171;BME280;56279;47.902;12.308;2023-07-31T05:45:40;95450.03;;;17.42;79.04
69171;BME280;56279;47.902;12.308;2023-07-31T05:47:41;95447.38;;;17.42;78.88
69171;BME280;56279;47.902;12.308;2023-07-31T05:49:43;95450.97;;;17.46;77.54
69171;BME280;56279;47.902;12.308;2023-07-31T05:51:45;95452.41;;;17.52;77.45
69171;BME280;56279;47.902;12.308;2023-07-31T05:53:46;95443.94;;;17.59;77.22
69171;BME280;56279;47.902;12.308;2023-07-31T05:55:47;95445.00;;;17.66;77.21
69171;BME280;56279;47.902;12.308;2023-07-31T05:57:48;95446.56;;;17.76;76.93
69171;BME280;56279;47.902;12.308;2023-07-31T05:59:50;95440.84;;;17.86;76.43
69171;BME280;56279;47.902;12.308;2023-07-31T06:01:54;95435.31;;;18.00;76.44
69171;BME280;56279;47.902;12.308;2023-07-31T06:03:56;95432.28;;;18.10;76.08
69171;BME280;56279;47.902;12.308;2023-07-31T06:05:57;95425.16;;;18.22;75.38
69171;BME280;56279;47.902;12.308;2023-07-31T06:07:58;95429.81;;;18.34;74.54
69171;BME280;56279;47.902;12.308;2023-07-31T06:09:59;95431.97;;;18.49;74.08
69171;BME280;56279;47.902;12.308;2023-07-31T06:12:07;95428.28;;;18.62;73.52
69171;BME280;56279;47.902;12.308;2023-07-31T06:14:08;95427.22;;;18.75;73.61
69171;BME280;56279;47.902;12.308;2023-07-31T06:16:09;95428.41;;;18.86;72.90
69171;BME280;56279;47.902;12.308;2023-07-31T06:18:11;95429.13;;;18.95;72.83
69171;BME280;56279;47.902;12.308;2023-07-31T06:20:12;95437.09;;;19.04;72.15
69171;BME280;56279;47.902;12.308;2023-07-31T06:22:13;95437.34;;;19.11;72.59
69171;BME280;56279;47.902;12.308;2023-07-31T06:24:14;95435.69;;;19.18;72.55
69171;BME280;56279;47.902;12.308;2023-07-31T06:26:20;95425.59;;;19.24;72.28
69171;BME280;56279;47.902;12.308;2023-07-31T06:28:27;95420.81;;;19.29;71.17
69171;BME280;56279;47.902;12.308;2023-07-31T06:30:29;95424.22;;;19.39;71.63
69171;BME280;56279;47.902;12.308;2023-07-31T06:32:30;95426.81;;;19.47;70.70
69171;BME280;56279;47.902;12.308;2023-07-31T06:34:31;95425.81;;;19.52;69.94
69171;BME280;56279;47.902;12.308;2023-07-31T06:36:33;95424.50;;;19.58;70.27
69171;BME280;56279;47.902;12.308;2023-07-31T06:38:34;95427.31;;;19.61;70.65
69171;BME280;56279;47.902;12.308;2023-07-31T06:40:35;95433.25;;;19.67;69.98
69171;BME280;56279;47.902;12.308;2023-07-31T06:42:36;95431.91;;;19.73;70.64
69171;BME280;56279;47.902;12.308;2023-07-31T06:44:38;95429.13;;;19.81;70.18
69171;BME280;56279;47.902;12.308;2023-07-31T06:46:39;95424.78;;;19.89;70.66
69171;BME280;56279;47.902;12.308;2023-07-31T06:48:40;95424.13;;;19.92;70.11
69171;BME280;56279;47.902;12.308;2023-07-31T06:50:42;95425.47;;;19.98;70.19
69171;BME280;56279;47.902;12.308;2023-07-31T06:52:43;95431.19;;;20.09;69.04
69171;BME280;56279;47.902;12.308;2023-07-31T06:55:00;95424.41;;;20.23;69.02
69171;BME280;56279;47.902;12.308;2023-07-31T06:57:02;95422.50;;;20.36;68.94
69171;BME280;56279;47.902;12.308;2023-07-31T06:59:04;95438.25;;;20.49;68.17
69171;BME280;56279;47.902;12.308;2023-07-31T07:01:05;95436.22;;;20.58;67.75
69171;BME280;56279;47.902;12.308;2023-07-31T07:03:07;95435.56;;;20.61;66.92
69171;BME280;56279;47.902;12.308;2023-07-31T07:05:08;95438.59;;;20.60;66.88
69171;BME280;56279;47.902;12.308;2023-07-31T07:07:10;95443.81;;;20.56;67.08
69171;BME280;56279;47.902;12.308;2023-07-31T07:09:11;95453.44;;;20.57;67.60
69171;BME280;56279;47.902;12.308;2023-07-31T07:11:13;95445.75;;;20.56;67.17
69171;BME280;56279;47.902;12.308;2023-07-31T07:13:14;95440.38;;;20.56;67.67
69171;BME280;56279;47.902;12.308;2023-07-31T07:15:16;95441.38;;;20.51;67.12
69171;BME280;56279;47.902;12.308;2023-07-31T07:17:17;95442.50;;;20.50;67.54
69171;BME280;56279;47.902;12.308;2023-07-31T07:19:18;95444.41;;;20.50;66.85
69171;BME280;56279;47.902;12.308;2023-07-31T07:21:20;95448.97;;;20.49;66.88
69171;BME280;56279;47.902;12.308;2023-07-31T07:23:21;95448.75;;;20.42;66.88
69171;BME280;56279;47.902;12.308;2023-07-31T07:25:23;95452.00;;;20.36;67.02
69171;BME280;56279;47.902;12.308;2023-07-31T07:27:25;95441.38;;;20.27;67.41
69171;BME280;56279;47.902;12.308;2023-07-31T07:29:26;95441.44;;;20.19;67.38
69171;BME280;56279;47.902;12.308;2023-07-31T07:31:28;95443.94;;;20.12;68.22
69171;BME280;56279;47.902;12.308;2023-07-31T07:33:29;95442.00;;;20.12;68.80
69171;BME280;56279;47.902;12.308;2023-07-31T07:35:33;95434.63;;;20.21;68.99
69171;BME280;56279;47.902;12.308;2023-07-31T07:37:35;95430.09;;;20.34;68.81
69171;BME280;56279;47.902;12.308;2023-07-31T07:39:36;95434.34;;;20.47;68.24
69171;BME280;56279;47.902;12.308;2023-07-31T07:41:38;95427.75;;;20.56;67.26
69171;BME280;56279;47.902;12.308;2023-07-31T07:43:39;95433.44;;;20.67;65.89
69171;BME280;56279;47.902;12.308;2023-07-31T07:45:41;95425.25;;;20.76;66.22
69171;BME280;56279;47.902;12.308;2023-07-31T07:47:42;95414.38;;;20.84;65.95
69171;BME280;56279;47.902;12.308;2023-07-31T07:49:43;95418.06;;;20.92;65.23
69171;BME280;56279;47.902;12.308;2023-07-31T07:51:44;95424.44;;;20.99;65.54
69171;BME280;56279;47.902;12.308;2023-07-31T07:53:45;95418.50;;;21.06;64.46
69171;BME280;56279;47.902;12.308;2023-07-31T07:55:47;95420.28;;;21.14;64.69
69171;BME280;56279;47.902;12.308;2023-07-31T07:57:48;95414.66;;;21.19;63.57
69171;BME280;56279;47.902;12.308;2023-07-31T07:59:51;95419.88;;;21.27;63.36
69171;BME280;56279;47.902;12.308;2023-07-31T08:01:52;95420.31;;;21.29;63.87
69171;BME280;56279;47.902;12.308;2023-07-31T08:03:54;95420.69;;;21.28;63.58
69171;BME280;56279;47.902;12.308;2023-07-31T08:06:02;95416.66;;;21.22;63.35
69171;BME280;56279;47.902;12.308;2023-07-31T08:08:03;95413.34;;;21.13;63.43
69171;BME280;56279;47.902;12.308;2023-07-31T08:10:05;95417.47;;;20.98;63.45
69171;BME280;56279;47.902;12.308;2023-07-31T08:12:07;95409.56;;;20.90;63.32
69171;BME280;56279;47.902;12.308;2023-07-31T08:14:08;95414.84;;;20.86;63.67
69171;BME280;56279;47.902;12.308;2023-07-31T08:16:09;95417.41;;;20.83;63.22
69171;BME280;56279;47.902;12.308;2023-07-31T08:18:11;95415.31;;;20.76;63.67
69171;BME280;56279;47.902;12.308;2023-07-31T08:20:13;95407.41;;;20.67;63.46
69171;BME280;56279;47.902;12.308;2023-07-31T08:22:15;95411.53;;;20.65;64.14
69171;BME280;56279;47.902;12.308;2023-07-31T08:24:16;95411.41;;;20.61;64.54
69171;BME280;56279;47.902;12.308;2023-07-31T08:26:18;95411.41;;;20.61;64.34
69171;BME280;56279;47.902;12.308;2023-07-31T08:28:20;95404.50;;;20.60;63.77
69171;BME280;56279;47.902;12.308;2023-07-31T08:30:21;95406.06;;;20.61;64.58
69171;BME280;56279;47.902;12.308;2023-07-31T08:32:22;95403.59;;;20.68;64.68
69171;BME280;56279;47.902;12.308;2023-07-31T08:34:25;95398.44;;;20.76;63.52
69171;BME280;56279;47.902;12.308;2023-07-31T08:36:26;95393.28;;;20.83;63.60
69171;BME280;56279;47.902;12.308;2023-07-31T08:38:27;95389.88;;;20.98;63.57
69171;BME280;56279;47.902;12.308;2023-07-31T08:40:30;95389.84;;;21.10;62.37
69171;BME280;56279;47.902;12.308;2023-07-31T08:42:32;95390.31;;;21.12;61.09
69171;BME280;56279;47.902;12.308;2023-07-31T08:44:34;95384.16;;;21.11;61.21
69171;BME280;56279;47.902;12.308;2023-07-31T08:46:36;95385.03;;;21.15;61.60
69171;BME280;56279;47.902;12.308;2023-07-31T08:48:39;95386.34;;;21.21;61.30
69171;BME280;56279;47.902;12.308;2023-07-31T08:50:42;95389.31;;;21.32;61.23
69171;BME280;56279;47.902;12.308;2023-07-31T08:52:43;95383.72;;;21.37;61.02
69171;BME280;56279;47.902;12.308;2023-07-31T08:54:45;95378.53;;;21.44;59.69
69171;BME280;56279;47.902;12.308;2023-07-31T08:56:46;95375.59;;;21.49;59.87
69171;BME280;56279;47.902;12.308;2023-07-31T08:58:49;95377.25;;;21.54;59.65
69171;BME280;56279;47.902;12.308;2023-07-31T09:00:52;95372.75;;;21.58;59.42
69171;BME280;56279;47.902;12.308;2023-07-31T09:03:02;95379.75;;;21.62;59.00
69171;BME280;56279;47.902;12.308;2023-07-31T09:05:06;95374.22;;;21.71;58.53
69171;BME280;56279;47.902;12.308;2023-07-31T09:07:08;95379.88;;;21.81;58.50
69171;BME280;56279;47.902;12.308;2023-07-31T09:09:10;95381.13;;;21.99;57.97
69171;BME280;56279;47.902;12.308;2023-07-31T09:11:13;95382.66;;;22.16;57.42
69171;BME280;56279;47.902;12.308;2023-07-31T09:13:14;95368.41;;;22.31;56.25
69171;BME280;56279;47.902;12.308;2023-07-31T09:15:16;95378.44;;;22.50;55.72
69171;BME280;56279;47.902;12.308;2023-07-31T09:17:29;95377.47;;;22.58;55.92
69171;BME280;56279;47.902;12.308;2023-07-31T09:19:35;95366.06;;;22.61;55.49
69171;BME280;56279;47.902;12.308;2023-07-31T09:21:47;95374.34;;;22.72;54.89
69171;BME280;56279;47.902;12.308;2023-07-31T09:23:49;95364.66;;;22.86;54.35
69171;BME280;56279;47.902;12.308;2023-07-31T09:25:52;95359.97;;;22.83;54.30
69171;BME280;56279;47.902;12.308;2023-07-31T09:27:56;95359.91;;;22.80;53.80
69171;BME280;56279;47.902;12.308;2023-07-31T09:29:59;95350.97;;;22.95;54.03
69171;BME280;56279;47.902;12.308;2023-07-31T09:32:00;95349.00;;;23.11;53.72
69171;BME280;56279;47.902;12.308;2023-07-31T09:34:02;95352.75;;;23.25;53.74
69171;BME280;56279;47.902;12.308;2023-07-31T09:36:04;95350.63;;;23.34;52.69
69171;BME280;56279;47.902;12.308;2023-07-31T09:38:07;95351.06;;;23.36;52.83
69171;BME280;56279;47.902;12.308;2023-07-31T09:40:24;95354.59;;;23.21;53.15
69171;BME280;56279;47.902;12.308;2023-07-31T09:42:26;95357.44;;;23.09;53.29
69171;BME280;56279;47.902;12.308;2023-07-31T09:44:38;95361.41;;;22.96;53.90
69171;BME280;56279;47.902;12.308;2023-07-31T09:46:40;95357.09;;;22.92;54.30
69171;BME280;56279;47.902;12.308;2023-07-31T09:48:42;95355.44;;;22.87;55.06
69171;BME280;56279;47.902;12.308;2023-07-31T09:50:45;95352.19;;;22.78;54.63
69171;BME280;56279;47.902;12.308;2023-07-31T09:52:46;95347.00;;;22.69;55.11
69171;BME280;56279;47.902;12.308;2023-07-31T09:54:47;95349.53;;;22.62;55.50
69171;BME280;56279;47.902;12.308;2023-07-31T09:56:49;95346.06;;;22.62;55.81
69171;BME280;56279;47.902;12.308;2023-07-31T09:58:51;95343.81;;;22.64;55.12
69171;BME280;56279;47.902;12.308;2023-07-31T10:00:52;95341.84;;;22.61;55.49
69171;BME280;56279;47.902;12.308;2023-07-31T10:02:58;95340.25;;;22.60;54.91
69171;BME280;56279;47.902;12.308;2023-07-31T10:05:02;95338.88;;;22.66;55.17
69171;BME280;56279;47.902;12.308;2023-07-31T10:07:04;95335.53;;;22.73;54.61
69171;BME280;56279;47.902;12.308;2023-07-31T10:09:09;95333.75;;;22.80;55.10
69171;BME280;56279;47.902;12.308;2023-07-31T10:11:13;95331.00;;;22.96;54.36
69171;BME280;56279;47.902;12.308;2023-07-31T10:13:15;95325.78;;;23.03;53.45
69171;BME280;56279;47.902;12.308;2023-07-31T10:15:18;95326.75;;;23.14;53.61
69171;BME280;56279;47.902;12.308;2023-07-31T10:17:24;95325.38;;;23.23;53.63
69171;BME280;56279;47.902;12.308;2023-07-31T10:19:26;95326.50;;;23.42;52.54
69171;BME280;56279;47.902;12.308;2023-07-31T10:21:29;95318.75;;;23.59;51.94
69171;BME280;56279;47.902;12.308;2023-07-31T10:23:31;95320.84;;;23.69;51.78
69171;BME280;56279;47.902;12.308;2023-07-31T10:25:32;95313.16;;;23.71;51.87
69171;BME280;56279;47.902;12.308;2023-07-31T10:27:35;95300.59;;;23.79;52.67
69171;BME280;56279;47.902;12.308;2023-07-31T10:29:38;95309.38;;;23.76;52.11
69171;BME280;56279;47.902;12.308;2023-07-31T10:31:41;95301.31;;;23.76;52.90
69171;BME280;56279;47.902;12.308;2023-07-31T10:33:42;95299.47;;;23.80;52.43
69171;BME280;56279;47.902;12.308;2023-07-31T10:35:44;95295.78;;;23.91;53.12
69171;BME280;56279;47.902;12.308;2023-07-31T10:37:45;95295.66;;;24.07;53.25
69171;BME280;56279;47.902;12.308;2023-07-31T10:40:01;95284.88;;;24.33;52.85
69171;BME280;56279;47.902;12.308;2023-07-31T10:42:13;95285.84;;;24.48;52.27
69171;BME280;56279;47.902;12.308;2023-07-31T10:44:17;95278.97;;;24.54;51.29
69171;BME280;56279;47.902;12.308;2023-07-31T10:46:18;95281.34;;;24.59;51.93
69171;BME280;56279;47.902;12.308;2023-07-31T10:48:20;95284.94;;;24.66;52.93